sensor_id;sensor_type;location;lat;lon;timestamp;P1;durP1;ratioP1;P2;durP2;ratioP2
6955;SDS011;50345;51.136;16.886;2023-07-29T00:00:33;5.07;;;4.77;;
6955;SDS011;50345;51.136;16.886;2023-07-29T00:02:59;4.33;;;3.50;;
6955;SDS011;50345;51.136;16.886;2023-07-29T00:05:25;3.83;;;3.53;;
6955;SDS011;50345;51.136;16.886;2023-07-29T00:07:51;4.07;;;3.77;;
6955;SDS011;50345;51.136;16.886;2023-07-29T00:10:17;4.13;;;3.72;;
6955;SDS011;50345;51.136;16.886;2023-07-29T00:12:43;5.78;;;3.92;;
6955;SDS011;50345;51.136;16.886;2023-07-29T00:15:09;4.65;;;3.85;;
6955;SDS011;50345;51.136;16.886;2023-07-29T00:17:35;5.80;;;3.93;;
6955;SDS011;50345;51.136;16.886;2023-07-29T00:20:02;6.30;;;3.80;;
6955;SDS011;50345;51.136;16.886;2023-07-29T00:22:28;4.90;;;3.03;;
6955;SDS011;50345;51.136;16.886;2023-07-29T00:24:54;3.57;;;3.37;;
6955;SDS011;50345;51.136;16.886;2023-07-29T00:27:22;4.93;;;3.77;;
6955;SDS011;50345;51.136;16.886;2023-07-29T00:29:48;3.20;;;3.00;;
6955;SDS011;50345;51.136;16.886;2023-07-29T00:32:14;3.83;;;3.53;;
6955;SDS011;50345;51.136;16.886;2023-07-29T00:34:40;3.93;;;3.10;;
6955;SDS011;50345;51.136;16.886;2023-07-29T00:37:06;2.87;;;2.60;;
6955;SDS011;50345;51.136;16.886;2023-07-29T00:39:32;4.18;;;3.05;;
6955;SDS011;50345;51.136;16.886;2023-07-29T00:41:58;4.00;;;3.70;;
6955;SDS011;50345;51.136;16.886;2023-07-29T00:44:24;4.93;;;4.50;;
6955;SDS011;50345;51.136;16.886;2023-07-29T00:46:53;9.73;;;8.93;;
6955;SDS011;50345;51.136;16.886;2023-07-29T00:49:20;9.27;;;8.57;;
6955;SDS011;50345;51.136;16.886;2023-07-29T00:51:46;8.70;;;8.00;;
6955;SDS011;50345;51.136;16.886;2023-07-29T00:54:13;8.25;;;7.63;;
6955;SDS011;50345;51.136;16.886;2023-07-29T00:56:39;7.70;;;7.00;;
6955;SDS011;50345;51.136;16.886;2023-07-29T00:59:05;8.60;;;7.90;;
6955;SDS011;50345;51.136;16.886;2023-07-29T01:01:31;10.38;;;9.48;;
6955;SDS011;50345;51.136;16.886;2023-07-29T01:03:58;11.38;;;10.50;;
6955;SDS011;50345;51.136;16.886;2023-07-29T01:09:03;11.85;;;10.95;;
6955;SDS011;50345;51.136;16.886;2023-07-29T01:11:44;13.52;;;12.20;;
6955;SDS011;50345;51.136;16.886;2023-07-29T01:14:23;13.02;;;12.02;;
6955;SDS011;50345;51.136;16.886;2023-07-29T01:16:52;13.00;;;12.00;;
6955;SDS011;50345;51.136;16.886;2023-07-29T01:22:06;19.20;;;17.52;;
6955;SDS011;50345;51.136;16.886;2023-07-29T01:24:33;17.95;;;16.25;;
6955;SDS011;50345;51.136;16.886;2023-07-29T01:26:59;17.20;;;15.90;;
6955;SDS011;50345;51.136;16.886;2023-07-29T01:29:26;18.75;;;17.23;;
6955;SDS011;50345;51.136;16.886;2023-07-29T01:31:54;16.58;;;15.27;;
6955;SDS011;50345;51.136;16.886;2023-07-29T01:36:47;17.73;;;16.03;;
6955;SDS011;50345;51.136;16.886;2023-07-29T01:39:14;15.45;;;14.25;;
6955;SDS011;50345;51.136;16.886;2023-07-29T01:41:42;15.80;;;14.60;;
6955;SDS011;50345;51.136;16.886;2023-07-29T01:44:09;14.32;;;13.13;;
6955;SDS011;50345;51.136;16.886;2023-07-29T01:46:36;15.07;;;13.85;;
6955;SDS011;50345;51.136;16.886;2023-07-29T01:49:02;14.95;;;13.63;;
6955;SDS011;50345;51.136;16.886;2023-07-29T01:51:28;14.70;;;13.40;;
6955;SDS011;50345;51.136;16.886;2023-07-29T01:53:54;14.30;;;13.10;;
6955;SDS011;50345;51.136;16.886;2023-07-29T01:56:20;12.02;;;10.82;;
6955;SDS011;50345;51.136;16.886;2023-07-29T01:58:46;11.43;;;10.30;;
6955;SDS011;50345;51.136;16.886;2023-07-29T02:01:12;12.00;;;10.82;;
6955;SDS011;50345;51.136;16.886;2023-07-29T02:03:38;12.93;;;11.65;;
6955;SDS011;50345;51.136;16.886;2023-07-29T02:06:04;10.30;;;9.50;;
6955;SDS011;50345;51.136;16.886;2023-07-29T02:08:30;8.88;;;6.50;;
6955;SDS011;50345;51.136;16.886;2023-07-29T02:10:57;7.47;;;6.97;;
6955;SDS011;50345;51.136;16.886;2023-07-29T02:13:23;7.10;;;6.60;;
6955;SDS011;50345;51.136;16.886;2023-07-29T02:15:49;8.07;;;6.57;;
6955;SDS011;50345;51.136;16.886;2023-07-29T02:18:15;7.05;;;6.30;;
6955;SDS011;50345;51.136;16.886;2023-07-29T02:20:41;6.53;;;6.03;;
6955;SDS011;50345;51.136;16.886;2023-07-29T02:23:14;5.28;;;4.88;;
6955;SDS011;50345;51.136;16.886;2023-07-29T02:25:40;6.68;;;5.78;;
6955;SDS011;50345;51.136;16.886;2023-07-29T02:28:06;11.00;;;5.53;;
6955;SDS011;50345;51.136;16.886;2023-07-29T02:30:32;5.25;;;4.75;;
6955;SDS011;50345;51.136;16.886;2023-07-29T02:32:58;4.75;;;4.35;;
6955;SDS011;50345;51.136;16.886;2023-07-29T02:35:26;4.72;;;4.38;;
6955;SDS011;50345;51.136;16.886;2023-07-29T02:37:52;4.60;;;4.20;;
6955;SDS011;50345;51.136;16.886;2023-07-29T02:40:18;5.50;;;4.13;;
6955;SDS011;50345;51.136;16.886;2023-07-29T02:42:45;5.55;;;4.53;;
6955;SDS011;50345;51.136;16.886;2023-07-29T02:45:11;4.50;;;4.20;;
6955;SDS011;50345;51.136;16.886;2023-07-29T02:47:37;5.37;;;4.90;;
6955;SDS011;50345;51.136;16.886;2023-07-29T02:50:04;4.85;;;4.45;;
6955;SDS011;50345;51.136;16.886;2023-07-29T02:52:30;4.95;;;4.55;;
6955;SDS011;50345;51.136;16.886;2023-07-29T02:54:56;9.73;;;4.45;;
6955;SDS011;50345;51.136;16.886;2023-07-29T02:57:22;5.07;;;4.50;;
6955;SDS011;50345;51.136;16.886;2023-07-29T02:59:48;5.97;;;5.47;;
6955;SDS011;50345;51.136;16.886;2023-07-29T03:02:14;5.20;;;4.57;;
6955;SDS011;50345;51.136;16.886;2023-07-29T03:04:41;4.60;;;3.67;;
6955;SDS011;50345;51.136;16.886;2023-07-29T03:07:07;4.25;;;3.85;;
6955;SDS011;50345;51.136;16.886;2023-07-29T03:09:33;6.13;;;3.67;;
6955;SDS011;50345;51.136;16.886;2023-07-29T03:11:59;4.30;;;4.00;;
6955;SDS011;50345;51.136;16.886;2023-07-29T03:14:25;3.95;;;3.65;;
6955;SDS011;50345;51.136;16.886;2023-07-29T03:16:52;5.65;;;3.83;;
6955;SDS011;50345;51.136;16.886;2023-07-29T03:19:18;4.75;;;4.35;;
6955;SDS011;50345;51.136;16.886;2023-07-29T03:21:44;4.20;;;3.90;;
6955;SDS011;50345;51.136;16.886;2023-07-29T03:24:11;4.55;;;4.10;;
6955;SDS011;50345;51.136;16.886;2023-07-29T03:26:37;4.95;;;4.43;;
6955;SDS011;50345;51.136;16.886;2023-07-29T03:29:03;4.53;;;4.23;;
6955;SDS011;50345;51.136;16.886;2023-07-29T03:31:29;4.00;;;3.70;;
6955;SDS011;50345;51.136;16.886;2023-07-29T03:33:55;3.90;;;3.60;;
6955;SDS011;50345;51.136;16.886;2023-07-29T03:36:21;5.10;;;4.53;;
6955;SDS011;50345;51.136;16.886;2023-07-29T03:38:47;7.00;;;4.25;;
6955;SDS011;50345;51.136;16.886;2023-07-29T03:41:13;5.00;;;4.13;;
6955;SDS011;50345;51.136;16.886;2023-07-29T03:43:39;4.30;;;3.95;;
6955;SDS011;50345;51.136;16.886;2023-07-29T03:46:05;4.43;;;3.95;;
6955;SDS011;50345;51.136;16.886;2023-07-29T03:48:31;3.50;;;3.20;;
6955;SDS011;50345;51.136;16.886;2023-07-29T03:50:57;6.30;;;3.13;;
6955;SDS011;50345;51.136;16.886;2023-07-29T03:53:23;4.53;;;3.30;;
6955;SDS011;50345;51.136;16.886;2023-07-29T03:55:50;7.38;;;4.25;;
6955;SDS011;50345;51.136;16.886;2023-07-29T03:58:16;4.90;;;4.38;;
6955;SDS011;50345;51.136;16.886;2023-07-29T04:00:42;10.10;;;4.68;;
6955;SDS011;50345;51.136;16.886;2023-07-29T04:03:08;5.05;;;4.60;;
6955;SDS011;50345;51.136;16.886;2023-07-29T04:05:34;3.50;;;3.30;;
6955;SDS011;50345;51.136;16.886;2023-07-29T04:08:00;4.03;;;3.60;;
6955;SDS011;50345;51.136;16.886;2023-07-29T04:10:26;6.60;;;4.30;;
6955;SDS011;50345;51.136;16.886;2023-07-29T04:12:52;3.67;;;3.47;;
6955;SDS011;50345;51.136;16.886;2023-07-29T04:15:18;3.95;;;3.50;;
6955;SDS011;50345;51.136;16.886;2023-07-29T04:17:44;4.05;;;3.63;;
6955;SDS011;50345;51.136;16.886;2023-07-29T04:20:11;3.80;;;3.50;;
6955;SDS011;50345;51.136;16.886;2023-07-29T04:22:37;4.70;;;3.42;;
6955;SDS011;50345;51.136;16.886;2023-07-29T04:25:03;4.90;;;2.87;;
6955;SDS011;50345;51.136;16.886;2023-07-29T04:27:29;3.83;;;3.47;;
6955;SDS011;50345;51.136;16.886;2023-07-29T04:29:55;6.57;;;3.10;;
6955;SDS011;50345;51.136;16.886;2023-07-29T04:32:21;5.33;;;3.60;;
6955;SDS011;50345;51.136;16.886;2023-07-29T04:34:47;3.43;;;2.77;;
6955;SDS011;50345;51.136;16.886;2023-07-29T04:37:13;7.83;;;3.20;;
6955;SDS011;50345;51.136;16.886;2023-07-29T04:39:39;4.93;;;3.80;;
6955;SDS011;50345;51.136;16.886;2023-07-29T04:42:05;3.53;;;3.23;;
6955;SDS011;50345;51.136;16.886;2023-07-29T04:44:31;4.80;;;3.10;;
6955;SDS011;50345;51.136;16.886;2023-07-29T04:46:57;4.03;;;3.17;;
6955;SDS011;50345;51.136;16.886;2023-07-29T04:49:23;3.70;;;3.00;;
6955;SDS011;50345;51.136;16.886;2023-07-29T04:51:49;4.60;;;3.50;;
6955;SDS011;50345;51.136;16.886;2023-07-29T04:54:15;3.80;;;2.67;;
6955;SDS011;50345;51.136;16.886;2023-07-29T04:56:41;3.67;;;3.03;;
6955;SDS011;50345;51.136;16.886;2023-07-29T04:59:07;3.75;;;3.40;;
6955;SDS011;50345;51.136;16.886;2023-07-29T05:01:34;3.33;;;2.97;;
6955;SDS011;50345;51.136;16.886;2023-07-29T05:04:00;3.53;;;2.90;;
6955;SDS011;50345;51.136;16.886;2023-07-29T05:06:26;2.92;;;2.72;;
6955;SDS011;50345;51.136;16.886;2023-07-29T05:08:52;3.37;;;2.60;;
6955;SDS011;50345;51.136;16.886;2023-07-29T05:11:18;3.40;;;3.10;;
6955;SDS011;50345;51.136;16.886;2023-07-29T05:13:45;5.80;;;3.10;;
6955;SDS011;50345;51.136;16.886;2023-07-29T05:16:11;3.20;;;3.00;;
6955;SDS011;50345;51.136;16.886;2023-07-29T05:18:37;4.27;;;3.07;;
6955;SDS011;50345;51.136;16.886;2023-07-29T05:21:03;3.50;;;3.20;;
6955;SDS011;50345;51.136;16.886;2023-07-29T05:23:29;5.47;;;3.47;;
6955;SDS011;50345;51.136;16.886;2023-07-29T05:25:55;4.33;;;3.87;;
6955;SDS011;50345;51.136;16.886;2023-07-29T05:28:21;4.47;;;3.53;;
6955;SDS011;50345;51.136;16.886;2023-07-29T05:30:47;7.23;;;5.37;;
6955;SDS011;50345;51.136;16.886;2023-07-29T05:33:13;8.20;;;5.47;;
6955;SDS011;50345;51.136;16.886;2023-07-29T05:35:39;6.20;;;4.23;;
6955;SDS011;50345;51.136;16.886;2023-07-29T05:38:05;7.53;;;3.73;;
6955;SDS011;50345;51.136;16.886;2023-07-29T05:40:33;3.30;;;3.00;;
6955;SDS011;50345;51.136;16.886;2023-07-29T05:42:59;2.77;;;2.53;;
6955;SDS011;50345;51.136;16.886;2023-07-29T05:45:25;5.40;;;2.70;;
6955;SDS011;50345;51.136;16.886;2023-07-29T05:47:51;6.90;;;3.33;;
6955;SDS011;50345;51.136;16.886;2023-07-29T05:50:17;4.97;;;3.00;;
6955;SDS011;50345;51.136;16.886;2023-07-29T05:52:43;3.03;;;2.83;;
6955;SDS011;50345;51.136;16.886;2023-07-29T05:55:09;6.70;;;3.40;;
6955;SDS011;50345;51.136;16.886;2023-07-29T05:57:35;5.70;;;3.53;;
6955;SDS011;50345;51.136;16.886;2023-07-29T06:00:01;11.13;;;4.00;;
6955;SDS011;50345;51.136;16.886;2023-07-29T06:02:27;3.60;;;3.00;;
6955;SDS011;50345;51.136;16.886;2023-07-29T06:04:53;6.23;;;2.70;;
6955;SDS011;50345;51.136;16.886;2023-07-29T06:07:19;3.77;;;2.70;;
6955;SDS011;50345;51.136;16.886;2023-07-29T06:09:45;5.10;;;2.47;;
6955;SDS011;50345;51.136;16.886;2023-07-29T06:12:11;5.67;;;2.93;;
6955;SDS011;50345;51.136;16.886;2023-07-29T06:14:37;5.20;;;3.60;;
6955;SDS011;50345;51.136;16.886;2023-07-29T06:17:04;4.90;;;2.60;;
6955;SDS011;50345;51.136;16.886;2023-07-29T06:19:31;2.93;;;2.60;;
6955;SDS011;50345;51.136;16.886;2023-07-29T06:21:57;3.37;;;3.00;;
6955;SDS011;50345;51.136;16.886;2023-07-29T06:24:24;4.60;;;2.90;;
6955;SDS011;50345;51.136;16.886;2023-07-29T06:26:50;3.73;;;2.77;;
6955;SDS011;50345;51.136;16.886;2023-07-29T06:29:16;5.33;;;2.87;;
6955;SDS011;50345;51.136;16.886;2023-07-29T06:31:42;3.57;;;2.57;;
6955;SDS011;50345;51.136;16.886;2023-07-29T06:34:08;4.37;;;3.00;;
6955;SDS011;50345;51.136;16.886;2023-07-29T06:36:34;2.70;;;2.50;;
6955;SDS011;50345;51.136;16.886;2023-07-29T06:39:00;2.70;;;2.10;;
6955;SDS011;50345;51.136;16.886;2023-07-29T06:41:26;2.20;;;2.00;;
6955;SDS011;50345;51.136;16.886;2023-07-29T06:43:52;2.47;;;2.27;;
6955;SDS011;50345;51.136;16.886;2023-07-29T06:46:18;3.70;;;2.57;;
6955;SDS011;50345;51.136;16.886;2023-07-29T06:48:44;3.30;;;2.23;;
6955;SDS011;50345;51.136;16.886;2023-07-29T06:51:10;2.60;;;2.33;;
6955;SDS011;50345;51.136;16.886;2023-07-29T06:53:37;2.40;;;2.20;;
6955;SDS011;50345;51.136;16.886;2023-07-29T06:56:03;1.80;;;1.70;;
6955;SDS011;50345;51.136;16.886;2023-07-29T06:58:29;2.27;;;2.17;;
6955;SDS011;50345;51.136;16.886;2023-07-29T07:00:55;2.43;;;1.80;;
6955;SDS011;50345;51.136;16.886;2023-07-29T07:03:21;2.53;;;2.33;;
6955;SDS011;50345;51.136;16.886;2023-07-29T07:05:47;2.00;;;1.90;;
6955;SDS011;50345;51.136;16.886;2023-07-29T07:08:14;1.93;;;1.83;;
6955;SDS011;50345;51.136;16.886;2023-07-29T07:10:40;1.87;;;1.77;;
6955;SDS011;50345;51.136;16.886;2023-07-29T07:13:06;2.50;;;2.27;;
6955;SDS011;50345;51.136;16.886;2023-07-29T07:15:32;5.17;;;1.50;;
6955;SDS011;50345;51.136;16.886;2023-07-29T07:17:58;2.00;;;1.90;;
6955;SDS011;50345;51.136;16.886;2023-07-29T07:20:24;2.80;;;1.80;;
6955;SDS011;50345;51.136;16.886;2023-07-29T07:22:50;2.20;;;2.00;;
6955;SDS011;50345;51.136;16.886;2023-07-29T07:25:16;2.30;;;2.10;;
6955;SDS011;50345;51.136;16.886;2023-07-29T07:27:42;1.97;;;1.87;;
6955;SDS011;50345;51.136;16.886;2023-07-29T07:30:08;1.90;;;1.80;;
6955;SDS011;50345;51.136;16.886;2023-07-29T07:32:34;2.00;;;1.90;;
6955;SDS011;50345;51.136;16.886;2023-07-29T07:35:01;4.23;;;1.80;;
6955;SDS011;50345;51.136;16.886;2023-07-29T07:37:27;1.83;;;1.73;;
6955;SDS011;50345;51.136;16.886;2023-07-29T07:39:53;1.77;;;1.60;;
6955;SDS011;50345;51.136;16.886;2023-07-29T07:42:19;1.93;;;1.83;;
6955;SDS011;50345;51.136;16.886;2023-07-29T07:44:45;1.70;;;1.60;;
6955;SDS011;50345;51.136;16.886;2023-07-29T07:47:11;1.83;;;1.73;;
6955;SDS011;50345;51.136;16.886;2023-07-29T07:49:37;2.00;;;1.90;;
6955;SDS011;50345;51.136;16.886;2023-07-29T07:52:03;2.47;;;2.27;;
6955;SDS011;50345;51.136;16.886;2023-07-29T07:54:29;2.30;;;1.50;;
6955;SDS011;50345;51.136;16.886;2023-07-29T07:56:55;3.27;;;3.07;;
6955;SDS011;50345;51.136;16.886;2023-07-29T07:59:21;2.40;;;2.30;;
6955;SDS011;50345;51.136;16.886;2023-07-29T08:01:47;1.97;;;1.87;;
6955;SDS011;50345;51.136;16.886;2023-07-29T08:04:13;3.90;;;1.90;;
6955;SDS011;50345;51.136;16.886;2023-07-29T08:06:39;4.53;;;1.97;;
6955;SDS011;50345;51.136;16.886;2023-07-29T08:09:05;1.50;;;1.40;;
6955;SDS011;50345;51.136;16.886;2023-07-29T08:11:31;1.90;;;1.80;;
6955;SDS011;50345;51.136;16.886;2023-07-29T08:13:58;1.70;;;1.60;;
6955;SDS011;50345;51.136;16.886;2023-07-29T08:16:24;1.40;;;1.30;;
6955;SDS011;50345;51.136;16.886;2023-07-29T08:18:50;1.83;;;1.73;;
6955;SDS011;50345;51.136;16.886;2023-07-29T08:21:16;1.60;;;1.50;;
6955;SDS011;50345;51.136;16.886;2023-07-29T08:23:42;1.60;;;1.43;;
6955;SDS011;50345;51.136;16.886;2023-07-29T08:26:08;2.03;;;1.53;;
6955;SDS011;50345;51.136;16.886;2023-07-29T08:28:35;1.77;;;1.67;;
6955;SDS011;50345;51.136;16.886;2023-07-29T08:31:01;1.70;;;1.60;;
6955;SDS011;50345;51.136;16.886;2023-07-29T08:33:28;1.60;;;1.50;;
6955;SDS011;50345;51.136;16.886;2023-07-29T08:35:54;1.73;;;1.63;;
6955;SDS011;50345;51.136;16.886;2023-07-29T08:38:20;1.73;;;1.57;;
6955;SDS011;50345;51.136;16.886;2023-07-29T08:40:51;3.00;;;2.53;;
6955;SDS011;50345;51.136;16.886;2023-07-29T08:43:19;1.83;;;1.73;;
6955;SDS011;50345;51.136;16.886;2023-07-29T08:45:46;1.60;;;1.50;;
6955;SDS011;50345;51.136;16.886;2023-07-29T08:48:12;2.40;;;1.70;;
6955;SDS011;50345;51.136;16.886;2023-07-29T08:50:39;1.77;;;1.67;;
6955;SDS011;50345;51.136;16.886;2023-07-29T08:53:07;2.50;;;2.13;;
6955;SDS011;50345;51.136;16.886;2023-07-29T08:55:33;1.60;;;1.50;;
6955;SDS011;50345;51.136;16.886;2023-07-29T08:58:00;2.80;;;1.50;;
6955;SDS011;50345;51.136;16.886;2023-07-29T09:00:26;3.33;;;3.13;;
6955;SDS011;50345;51.136;16.886;2023-07-29T09:02:52;1.87;;;1.77;;
6955;SDS011;50345;51.136;16.886;2023-07-29T09:05:20;1.67;;;1.57;;
6955;SDS011;50345;51.136;16.886;2023-07-29T09:07:46;1.97;;;1.70;;
6955;SDS011;50345;51.136;16.886;2023-07-29T09:10:13;2.53;;;2.33;;
6955;SDS011;50345;51.136;16.886;2023-07-29T09:12:40;1.60;;;1.50;;
6955;SDS011;50345;51.136;16.886;2023-07-29T09:15:06;3.27;;;1.90;;
6955;SDS011;50345;51.136;16.886;2023-07-29T09:17:33;1.50;;;1.40;;
6955;SDS011;50345;51.136;16.886;2023-07-29T09:19:59;1.67;;;1.57;;
6955;SDS011;50345;51.136;16.886;2023-07-29T09:22:26;1.80;;;1.70;;
6955;SDS011;50345;51.136;16.886;2023-07-29T09:24:52;2.20;;;2.00;;
6955;SDS011;50345;51.136;16.886;2023-07-29T09:27:28;2.10;;;2.00;;
6955;SDS011;50345;51.136;16.886;2023-07-29T09:29:56;1.90;;;1.80;;
6955;SDS011;50345;51.136;16.886;2023-07-29T09:32:24;2.10;;;1.70;;
6955;SDS011;50345;51.136;16.886;2023-07-29T09:34:50;1.47;;;1.37;;
6955;SDS011;50345;51.136;16.886;2023-07-29T09:37:25;1.90;;;1.63;;
6955;SDS011;50345;51.136;16.886;2023-07-29T09:39:51;1.50;;;1.40;;
6955;SDS011;50345;51.136;16.886;2023-07-29T09:42:18;2.33;;;2.13;;
6955;SDS011;50345;51.136;16.886;2023-07-29T09:44:44;1.47;;;1.37;;
6955;SDS011;50345;51.136;16.886;2023-07-29T09:47:18;1.60;;;1.50;;
6955;SDS011;50345;51.136;16.886;2023-07-29T09:49:45;2.83;;;2.13;;
6955;SDS011;50345;51.136;16.886;2023-07-29T09:52:11;2.33;;;2.13;;
6955;SDS011;50345;51.136;16.886;2023-07-29T09:54:37;1.90;;;1.80;;
6955;SDS011;50345;51.136;16.886;2023-07-29T09:57:04;2.30;;;2.10;;
6955;SDS011;50345;51.136;16.886;2023-07-29T09:59:35;4.43;;;2.20;;
6955;SDS011;50345;51.136;16.886;2023-07-29T10:02:01;2.90;;;2.70;;
6955;SDS011;50345;51.136;16.886;2023-07-29T10:04:27;2.43;;;2.33;;
6955;SDS011;50345;51.136;16.886;2023-07-29T10:06:54;2.20;;;2.07;;
6955;SDS011;50345;51.136;16.886;2023-07-29T10:09:20;2.40;;;2.30;;
6955;SDS011;50345;51.136;16.886;2023-07-29T10:11:47;2.07;;;1.97;;
6955;SDS011;50345;51.136;16.886;2023-07-29T10:14:14;2.23;;;2.13;;
6955;SDS011;50345;51.136;16.886;2023-07-29T10:16:41;2.63;;;2.50;;
6955;SDS011;50345;51.136;16.886;2023-07-29T10:19:10;3.03;;;2.83;;
6955;SDS011;50345;51.136;16.886;2023-07-29T10:21:38;2.50;;;2.40;;
6955;SDS011;50345;51.136;16.886;2023-07-29T10:24:04;3.23;;;3.00;;
6955;SDS011;50345;51.136;16.886;2023-07-29T10:26:31;3.20;;;2.90;;
6955;SDS011;50345;51.136;16.886;2023-07-29T10:28:59;3.07;;;2.87;;
6955;SDS011;50345;51.136;16.886;2023-07-29T10:31:29;2.80;;;2.60;;
6955;SDS011;50345;51.136;16.886;2023-07-29T10:33:56;2.63;;;2.47;;
6955;SDS011;50345;51.136;16.886;2023-07-29T10:36:22;2.43;;;2.17;;
6955;SDS011;50345;51.136;16.886;2023-07-29T10:38:49;2.30;;;2.20;;
6955;SDS011;50345;51.136;16.886;2023-07-29T10:41:15;2.50;;;2.40;;
6955;SDS011;50345;51.136;16.886;2023-07-29T10:43:41;2.50;;;2.40;;
6955;SDS011;50345;51.136;16.886;2023-07-29T10:46:22;2.80;;;2.17;;
6955;SDS011;50345;51.136;16.886;2023-07-29T10:48:53;2.10;;;2.00;;
6955;SDS011;50345;51.136;16.886;2023-07-29T10:53:52;2.80;;;2.60;;
6955;SDS011;50345;51.136;16.886;2023-07-29T10:56:25;2.10;;;2.00;;
6955;SDS011;50345;51.136;16.886;2023-07-29T10:58:51;2.37;;;2.23;;
6955;SDS011;50345;51.136;16.886;2023-07-29T11:01:27;2.97;;;1.60;;
6955;SDS011;50345;51.136;16.886;2023-07-29T11:10:09;2.00;;;1.90;;
6955;SDS011;50345;51.136;16.886;2023-07-29T11:14:54;2.80;;;1.80;;
6955;SDS011;50345;51.136;16.886;2023-07-29T11:17:20;1.93;;;1.83;;
6955;SDS011;50345;51.136;16.886;2023-07-29T11:19:46;1.93;;;1.83;;
6955;SDS011;50345;51.136;16.886;2023-07-29T11:22:13;2.10;;;1.90;;
6955;SDS011;50345;51.136;16.886;2023-07-29T11:24:41;2.43;;;1.60;;
6955;SDS011;50345;51.136;16.886;2023-07-29T11:27:11;3.10;;;2.03;;
6955;SDS011;50345;51.136;16.886;2023-07-29T11:29:37;1.63;;;1.53;;
6955;SDS011;50345;51.136;16.886;2023-07-29T11:32:03;2.13;;;2.00;;
6955;SDS011;50345;51.136;16.886;2023-07-29T11:34:32;2.43;;;2.00;;
6955;SDS011;50345;51.136;16.886;2023-07-29T11:36:58;1.97;;;1.87;;
6955;SDS011;50345;51.136;16.886;2023-07-29T11:39:23;2.10;;;1.50;;
6955;SDS011;50345;51.136;16.886;2023-07-29T11:41:49;1.77;;;1.67;;
6955;SDS011;50345;51.136;16.886;2023-07-29T11:44:17;1.70;;;1.60;;
6955;SDS011;50345;51.136;16.886;2023-07-29T11:46:43;4.50;;;1.90;;
6955;SDS011;50345;51.136;16.886;2023-07-29T11:49:09;1.70;;;1.60;;
6955;SDS011;50345;51.136;16.886;2023-07-29T11:51:35;1.57;;;1.47;;
6955;SDS011;50345;51.136;16.886;2023-07-29T11:54:01;1.30;;;1.20;;
6955;SDS011;50345;51.136;16.886;2023-07-29T11:56:27;1.70;;;1.60;;
6955;SDS011;50345;51.136;16.886;2023-07-29T11:58:55;1.90;;;1.80;;
6955;SDS011;50345;51.136;16.886;2023-07-29T12:01:22;1.63;;;1.53;;
6955;SDS011;50345;51.136;16.886;2023-07-29T12:03:48;1.50;;;1.40;;
6955;SDS011;50345;51.136;16.886;2023-07-29T12:06:15;1.53;;;1.43;;
6955;SDS011;50345;51.136;16.886;2023-07-29T12:08:41;1.60;;;1.50;;
6955;SDS011;50345;51.136;16.886;2023-07-29T12:11:08;4.17;;;3.87;;
6955;SDS011;50345;51.136;16.886;2023-07-29T12:13:36;6.03;;;3.67;;
6955;SDS011;50345;51.136;16.886;2023-07-29T12:16:02;3.80;;;3.60;;
6955;SDS011;50345;51.136;16.886;2023-07-29T12:18:32;1.77;;;1.67;;
6955;SDS011;50345;51.136;16.886;2023-07-29T12:20:58;2.00;;;1.90;;
6955;SDS011;50345;51.136;16.886;2023-07-29T12:23:24;1.40;;;1.30;;
6955;SDS011;50345;51.136;16.886;2023-07-29T12:25:51;1.50;;;1.40;;
6955;SDS011;50345;51.136;16.886;2023-07-29T12:28:17;4.73;;;1.60;;
6955;SDS011;50345;51.136;16.886;2023-07-29T12:30:43;1.60;;;1.50;;
6955;SDS011;50345;51.136;16.886;2023-07-29T12:33:09;1.77;;;1.67;;
6955;SDS011;50345;51.136;16.886;2023-07-29T12:35:38;2.30;;;1.50;;
6955;SDS011;50345;51.136;16.886;2023-07-29T12:38:05;2.00;;;1.80;;
6955;SDS011;50345;51.136;16.886;2023-07-29T12:40:31;2.47;;;2.27;;
6955;SDS011;50345;51.136;16.886;2023-07-29T12:42:57;2.20;;;1.50;;
6955;SDS011;50345;51.136;16.886;2023-07-29T12:45:23;1.30;;;1.20;;
6955;SDS011;50345;51.136;16.886;2023-07-29T12:47:51;2.13;;;2.00;;
6955;SDS011;50345;51.136;16.886;2023-07-29T12:50:17;1.57;;;1.47;;
6955;SDS011;50345;51.136;16.886;2023-07-29T12:52:44;2.40;;;1.30;;
6955;SDS011;50345;51.136;16.886;2023-07-29T12:55:10;5.47;;;1.50;;
6955;SDS011;50345;51.136;16.886;2023-07-29T12:57:38;1.80;;;1.20;;
6955;SDS011;50345;51.136;16.886;2023-07-29T13:00:05;3.67;;;1.40;;
6955;SDS011;50345;51.136;16.886;2023-07-29T13:02:31;1.67;;;1.47;;
6955;SDS011;50345;51.136;16.886;2023-07-29T13:04:57;2.07;;;1.40;;
6955;SDS011;50345;51.136;16.886;2023-07-29T13:07:23;1.60;;;1.50;;
6955;SDS011;50345;51.136;16.886;2023-07-29T13:09:49;1.20;;;1.10;;
6955;SDS011;50345;51.136;16.886;2023-07-29T13:12:15;1.30;;;1.20;;
6955;SDS011;50345;51.136;16.886;2023-07-29T13:14:41;1.50;;;1.40;;
6955;SDS011;50345;51.136;16.886;2023-07-29T13:17:07;1.90;;;1.30;;
6955;SDS011;50345;51.136;16.886;2023-07-29T13:19:33;3.40;;;1.53;;
6955;SDS011;50345;51.136;16.886;2023-07-29T13:21:59;2.70;;;1.00;;
6955;SDS011;50345;51.136;16.886;2023-07-29T13:24:27;5.03;;;1.40;;
6955;SDS011;50345;51.136;16.886;2023-07-29T13:26:53;1.20;;;1.10;;
6955;SDS011;50345;51.136;16.886;2023-07-29T13:29:19;1.80;;;1.50;;
6955;SDS011;50345;51.136;16.886;2023-07-29T13:31:45;5.43;;;1.37;;
6955;SDS011;50345;51.136;16.886;2023-07-29T13:34:11;1.43;;;1.33;;
6955;SDS011;50345;51.136;16.886;2023-07-29T13:36:38;2.90;;;2.00;;
6955;SDS011;50345;51.136;16.886;2023-07-29T13:39:04;1.30;;;1.20;;
6955;SDS011;50345;51.136;16.886;2023-07-29T13:41:30;1.80;;;1.33;;
6955;SDS011;50345;51.136;16.886;2023-07-29T13:43:56;1.27;;;1.17;;
6955;SDS011;50345;51.136;16.886;2023-07-29T13:46:22;1.20;;;1.10;;
6955;SDS011;50345;51.136;16.886;2023-07-29T13:48:48;1.27;;;1.17;;
6955;SDS011;50345;51.136;16.886;2023-07-29T13:51:14;1.90;;;1.20;;
6955;SDS011;50345;51.136;16.886;2023-07-29T13:53:40;1.10;;;1.00;;
6955;SDS011;50345;51.136;16.886;2023-07-29T13:56:06;2.93;;;1.30;;
6955;SDS011;50345;51.136;16.886;2023-07-29T13:58:32;2.50;;;1.20;;
6955;SDS011;50345;51.136;16.886;2023-07-29T14:00:58;1.50;;;1.40;;
6955;SDS011;50345;51.136;16.886;2023-07-29T14:03:24;1.27;;;1.07;;
6955;SDS011;50345;51.136;16.886;2023-07-29T14:05:50;1.67;;;1.20;;
6955;SDS011;50345;51.136;16.886;2023-07-29T14:08:16;1.40;;;1.20;;
6955;SDS011;50345;51.136;16.886;2023-07-29T14:10:42;1.47;;;1.37;;
6955;SDS011;50345;51.136;16.886;2023-07-29T14:13:08;1.40;;;1.30;;
6955;SDS011;50345;51.136;16.886;2023-07-29T14:15:34;2.50;;;1.20;;
6955;SDS011;50345;51.136;16.886;2023-07-29T14:18:00;1.60;;;1.50;;
6955;SDS011;50345;51.136;16.886;2023-07-29T14:20:27;1.50;;;1.20;;
6955;SDS011;50345;51.136;16.886;2023-07-29T14:22:53;1.40;;;1.30;;
6955;SDS011;50345;51.136;16.886;2023-07-29T14:25:19;2.27;;;2.13;;
6955;SDS011;50345;51.136;16.886;2023-07-29T14:27:45;4.27;;;1.60;;
6955;SDS011;50345;51.136;16.886;2023-07-29T14:30:11;1.67;;;1.57;;
6955;SDS011;50345;51.136;16.886;2023-07-29T14:32:37;1.30;;;1.20;;
6955;SDS011;50345;51.136;16.886;2023-07-29T14:35:03;1.60;;;1.10;;
6955;SDS011;50345;51.136;16.886;2023-07-29T14:37:30;1.63;;;1.40;;
6955;SDS011;50345;51.136;16.886;2023-07-29T14:39:57;1.27;;;1.17;;
6955;SDS011;50345;51.136;16.886;2023-07-29T14:42:23;1.60;;;1.47;;
6955;SDS011;50345;51.136;16.886;2023-07-29T14:44:49;1.20;;;1.10;;
6955;SDS011;50345;51.136;16.886;2023-07-29T14:47:15;3.70;;;1.30;;
6955;SDS011;50345;51.136;16.886;2023-07-29T14:49:41;1.83;;;1.20;;
6955;SDS011;50345;51.136;16.886;2023-07-29T14:52:07;1.00;;;1.00;;
6955;SDS011;50345;51.136;16.886;2023-07-29T14:54:33;1.60;;;1.50;;
6955;SDS011;50345;51.136;16.886;2023-07-29T14:56:59;4.23;;;1.40;;
6955;SDS011;50345;51.136;16.886;2023-07-29T14:59:25;2.70;;;1.40;;